sensor_id;sensor_type;location;lat;lon;timestamp;pressure;altitude;pressure_sealevel;temperature
13497;BMP180;6820;49.374;8.452;2023-05-17T00:02:03;101118.38;;;16.89
13497;BMP180;6820;49.374;8.452;2023-05-17T00:06:04;101109.66;;;16.85
13497;BMP180;6820;49.374;8.452;2023-05-17T00:10:06;101118.09;;;16.83
13497;BMP180;6820;49.374;8.452;2023-05-17T00:14:08;101104.28;;;16.79
13497;BMP180;6820;49.374;8.452;2023-05-17T00:18:10;101116.16;;;16.79
13497;BMP180;6820;49.374;8.452;2023-05-17T00:22:11;101109.06;;;16.74
13497;BMP180;6820;49.374;8.452;2023-05-17T00:26:13;101103.53;;;16.65
13497;BMP180;6820;49.374;8.452;2023-05-17T00:30:15;101115.31;;;16.61
13497;BMP180;6820;49.374;8.452;2023-05-17T00:34:17;101115.88;;;16.56
13497;BMP180;6820;49.374;8.452;2023-05-17T00:38:19;101111.22;;;16.47
13497;BMP180;6820;49.374;8.452;2023-05-17T00:42:22;101115.22;;;16.43
13497;BMP180;6820;49.374;8.452;2023-05-17T00:46:23;101122.28;;;16.31
13497;BMP180;6820;49.374;8.452;2023-05-17T00:50:25;101121.19;;;16.26
13497;BMP180;6820;49.374;8.452;2023-05-17T00:54:27;101118.41;;;16.21
13497;BMP180;6820;49.374;8.452;2023-05-17T00:58:29;101119.94;;;16.18
13497;BMP180;6820;49.374;8.452;2023-05-17T01:02:30;101125.34;;;16.08
13497;BMP180;6820;49.374;8.452;2023-05-17T01:06:33;101132.72;;;16.02
13497;BMP180;6820;49.374;8.452;2023-05-17T01:10:40;101129.25;;;16.02
13497;BMP180;6820;49.374;8.452;2023-05-17T01:14:53;101134.56;;;16.05
13497;BMP180;6820;49.374;8.452;2023-05-17T01:27:34;101138.78;;;15.88
13497;BMP180;6820;49.374;8.452;2023-05-17T01:31:37;101139.69;;;15.89
13497;BMP180;6820;49.374;8.452;2023-05-17T01:35:39;101153.66;;;15.95
13497;BMP180;6820;49.374;8.452;2023-05-17T01:39:41;101161.47;;;15.98
13497;BMP180;6820;49.374;8.452;2023-05-17T01:43:50;101161.56;;;16.00
13497;BMP180;6820;49.374;8.452;2023-05-17T01:48:16;101161.00;;;16.05
13497;BMP180;6820;49.374;8.452;2023-05-17T01:52:31;101167.28;;;16.12
13497;BMP180;6820;49.374;8.452;2023-05-17T01:56:40;101164.19;;;16.17
13497;BMP180;6820;49.374;8.452;2023-05-17T02:00:45;101164.28;;;16.18
13497;BMP180;6820;49.374;8.452;2023-05-17T02:04:47;101166.59;;;16.14
13497;BMP180;6820;49.374;8.452;2023-05-17T02:08:49;101175.09;;;16.13
13497;BMP180;6820;49.374;8.452;2023-05-17T02:12:51;101177.50;;;16.12
13497;BMP180;6820;49.374;8.452;2023-05-17T02:16:53;101180.94;;;16.12
13497;BMP180;6820;49.374;8.452;2023-05-17T02:20:55;101187.06;;;16.14
13497;BMP180;6820;49.374;8.452;2023-05-17T02:24:57;101177.78;;;16.16
13497;BMP180;6820;49.374;8.452;2023-05-17T02:28:58;101177.06;;;16.18
13497;BMP180;6820;49.374;8.452;2023-05-17T02:33:00;101172.34;;;16.10
13497;BMP180;6820;49.374;8.452;2023-05-17T02:37:03;101179.75;;;16.06
13497;BMP180;6820;49.374;8.452;2023-05-17T02:41:04;101187.34;;;16.04
13497;BMP180;6820;49.374;8.452;2023-05-17T02:45:06;101187.19;;;16.01
13497;BMP180;6820;49.374;8.452;2023-05-17T02:49:08;101183.03;;;16.03
13497;BMP180;6820;49.374;8.452;2023-05-17T02:53:10;101185.34;;;15.99
13497;BMP180;6820;49.374;8.452;2023-05-17T02:57:11;101194.09;;;16.02
13497;BMP180;6820;49.374;8.452;2023-05-17T03:01:13;101195.00;;;16.04
13497;BMP180;6820;49.374;8.452;2023-05-17T03:05:16;101206.63;;;15.98
13497;BMP180;6820;49.374;8.452;2023-05-17T03:09:22;101200.53;;;15.96
13497;BMP180;6820;49.374;8.452;2023-05-17T03:13:25;101193.28;;;15.87
13497;BMP180;6820;49.374;8.452;2023-05-17T03:17:27;101194.38;;;15.77
13497;BMP180;6820;49.374;8.452;2023-05-17T03:21:29;101194.78;;;15.68
13497;BMP180;6820;49.374;8.452;2023-05-17T03:25:30;101197.09;;;15.64
13497;BMP180;6820;49.374;8.452;2023-05-17T03:29:32;101200.34;;;15.61
13497;BMP180;6820;49.374;8.452;2023-05-17T03:33:37;101202.84;;;15.60
13497;BMP180;6820;49.374;8.452;2023-05-17T03:37:40;101200.91;;;15.56
13497;BMP180;6820;49.374;8.452;2023-05-17T03:41:42;101204.34;;;15.56
13497;BMP180;6820;49.374;8.452;2023-05-17T03:45:44;101208.50;;;15.54
13497;BMP180;6820;49.374;8.452;2023-05-17T03:49:46;101216.16;;;15.54
13497;BMP180;6820;49.374;8.452;2023-05-17T03:53:55;101220.31;;;15.53
13497;BMP180;6820;49.374;8.452;2023-05-17T03:57:58;101224.56;;;15.52
13497;BMP180;6820;49.374;8.452;2023-05-17T04:02:00;101234.84;;;15.53
13497;BMP180;6820;49.374;8.452;2023-05-17T04:06:04;101228.41;;;15.60
13497;BMP180;6820;49.374;8.452;2023-05-17T04:10:11;101233.72;;;15.64
13497;BMP180;6820;49.374;8.452;2023-05-17T04:14:12;101241.41;;;15.64
13497;BMP180;6820;49.374;8.452;2023-05-17T04:18:14;101243.19;;;15.65
13497;BMP180;6820;49.374;8.452;2023-05-17T04:22:16;101247.41;;;15.65
13497;BMP180;6820;49.374;8.452;2023-05-17T04:26:18;101243.97;;;15.64
13497;BMP180;6820;49.374;8.452;2023-05-17T04:30:21;101247.59;;;15.68
13497;BMP180;6820;49.374;8.452;2023-05-17T04:34:24;101255.31;;;15.69
13497;BMP180;6820;49.374;8.452;2023-05-17T04:38:28;101258.13;;;15.74
13497;BMP180;6820;49.374;8.452;2023-05-17T04:42:31;101258.75;;;15.85
13497;BMP180;6820;49.374;8.452;2023-05-17T04:46:33;101274.09;;;15.85
13497;BMP180;6820;49.374;8.452;2023-05-17T04:50:35;101265.56;;;15.85
13497;BMP180;6820;49.374;8.452;2023-05-17T04:54:38;101278.28;;;15.84
13497;BMP180;6820;49.374;8.452;2023-05-17T04:58:39;101279.31;;;15.87
13497;BMP180;6820;49.374;8.452;2023-05-17T05:02:41;101281.47;;;15.95
13497;BMP180;6820;49.374;8.452;2023-05-17T05:06:44;101284.44;;;16.03
13497;BMP180;6820;49.374;8.452;2023-05-17T05:10:47;101287.88;;;16.03
13497;BMP180;6820;49.374;8.452;2023-05-17T05:14:54;101304.69;;;16.14
13497;BMP180;6820;49.374;8.452;2023-05-17T05:18:57;101300.63;;;16.17
13497;BMP180;6820;49.374;8.452;2023-05-17T05:23:00;101310.47;;;16.26
13497;BMP180;6820;49.374;8.452;2023-05-17T05:27:04;101310.06;;;16.34
13497;BMP180;6820;49.374;8.452;2023-05-17T05:31:08;101321.75;;;16.45
13497;BMP180;6820;49.374;8.452;2023-05-17T05:35:16;101316.06;;;16.50
13497;BMP180;6820;49.374;8.452;2023-05-17T05:39:18;101322.13;;;16.52
13497;BMP180;6820;49.374;8.452;2023-05-17T05:43:20;101317.34;;;16.58
13497;BMP180;6820;49.374;8.452;2023-05-17T05:47:21;101328.84;;;16.66
13497;BMP180;6820;49.374;8.452;2023-05-17T05:51:23;101326.66;;;16.74
13497;BMP180;6820;49.374;8.452;2023-05-17T05:55:25;101331.44;;;16.83
13497;BMP180;6820;49.374;8.452;2023-05-17T05:59:29;101336.16;;;16.92
13497;BMP180;6820;49.374;8.452;2023-05-17T06:03:31;101337.84;;;16.91
13497;BMP180;6820;49.374;8.452;2023-05-17T06:07:33;101350.78;;;16.94
13497;BMP180;6820;49.374;8.452;2023-05-17T06:11:35;101356.16;;;16.99
13497;BMP180;6820;49.374;8.452;2023-05-17T06:15:37;101348.69;;;17.03
13497;BMP180;6820;49.374;8.452;2023-05-17T06:19:38;101357.84;;;17.14
13497;BMP180;6820;49.374;8.452;2023-05-17T06:23:40;101356.03;;;17.29
13497;BMP180;6820;49.374;8.452;2023-05-17T06:27:42;101356.69;;;17.42
13497;BMP180;6820;49.374;8.452;2023-05-17T06:31:44;101357.13;;;17.51
13497;BMP180;6820;49.374;8.452;2023-05-17T06:35:45;101366.81;;;17.56
13497;BMP180;6820;49.374;8.452;2023-05-17T06:40:05;101365.81;;;17.70
13497;BMP180;6820;49.374;8.452;2023-05-17T06:44:15;101367.78;;;17.75
13497;BMP180;6820;49.374;8.452;2023-05-17T06:48:17;101376.63;;;17.82
13497;BMP180;6820;49.374;8.452;2023-05-17T06:52:19;101376.19;;;17.90
13497;BMP180;6820;49.374;8.452;2023-05-17T06:56:21;101379.25;;;18.00
13497;BMP180;6820;49.374;8.452;2023-05-17T07:00:22;101379.72;;;18.09
13497;BMP180;6820;49.374;8.452;2023-05-17T07:04:25;101376.53;;;18.15
13497;BMP180;6820;49.374;8.452;2023-05-17T07:08:27;101391.34;;;18.20
13497;BMP180;6820;49.374;8.452;2023-05-17T07:12:29;101386.56;;;18.28
13497;BMP180;6820;49.374;8.452;2023-05-17T07:16:31;101393.75;;;18.34
13497;BMP180;6820;49.374;8.452;2023-05-17T07:20:32;101383.28;;;18.49
13497;BMP180;6820;49.374;8.452;2023-05-17T07:24:34;101380.13;;;18.54
13497;BMP180;6820;49.374;8.452;2023-05-17T07:28:36;101383.97;;;18.63
13497;BMP180;6820;49.374;8.452;2023-05-17T07:32:38;101392.91;;;18.71
13497;BMP180;6820;49.374;8.452;2023-05-17T07:36:39;101387.47;;;18.84
13497;BMP180;6820;49.374;8.452;2023-05-17T07:40:41;101388.72;;;18.92
13497;BMP180;6820;49.374;8.452;2023-05-17T07:44:43;101379.47;;;18.95
13497;BMP180;6820;49.374;8.452;2023-05-17T07:48:44;101383.41;;;19.08
13497;BMP180;6820;49.374;8.452;2023-05-17T07:52:46;101380.03;;;19.27
13497;BMP180;6820;49.374;8.452;2023-05-17T07:56:48;101387.91;;;19.32
13497;BMP180;6820;49.374;8.452;2023-05-17T08:00:50;101385.03;;;19.45
13497;BMP180;6820;49.374;8.452;2023-05-17T08:04:51;101380.88;;;19.48
13497;BMP180;6820;49.374;8.452;2023-05-17T08:08:53;101386.31;;;19.54
13497;BMP180;6820;49.374;8.452;2023-05-17T08:12:55;101379.13;;;19.67
13497;BMP180;6820;49.374;8.452;2023-05-17T08:16:57;101390.78;;;20.00
13497;BMP180;6820;49.374;8.452;2023-05-17T08:20:58;101382.00;;;20.38
13497;BMP180;6820;49.374;8.452;2023-05-17T08:25:00;101371.88;;;20.43
13497;BMP180;6820;49.374;8.452;2023-05-17T08:29:02;101380.31;;;20.60
13497;BMP180;6820;49.374;8.452;2023-05-17T08:33:05;101378.28;;;20.75
13497;BMP180;6820;49.374;8.452;2023-05-17T08:37:07;101373.06;;;20.74
13497;BMP180;6820;49.374;8.452;2023-05-17T08:41:09;101371.50;;;20.77
13497;BMP180;6820;49.374;8.452;2023-05-17T08:45:11;101365.78;;;20.85
13497;BMP180;6820;49.374;8.452;2023-05-17T08:49:14;101359.97;;;21.15
13497;BMP180;6820;49.374;8.452;2023-05-17T08:53:16;101358.72;;;21.52
13497;BMP180;6820;49.374;8.452;2023-05-17T08:57:19;101359.66;;;21.54
13497;BMP180;6820;49.374;8.452;2023-05-17T09:01:20;101354.34;;;21.50
13497;BMP180;6820;49.374;8.452;2023-05-17T09:05:27;101364.91;;;21.33
13497;BMP180;6820;49.374;8.452;2023-05-17T09:09:28;101354.94;;;21.18
13497;BMP180;6820;49.374;8.452;2023-05-17T09:13:30;101354.25;;;21.24
13497;BMP180;6820;49.374;8.452;2023-05-17T09:17:32;101356.75;;;21.45
13497;BMP180;6820;49.374;8.452;2023-05-17T09:21:35;101358.91;;;21.84
13497;BMP180;6820;49.374;8.452;2023-05-17T09:25:37;101341.63;;;22.08
13497;BMP180;6820;49.374;8.452;2023-05-17T09:29:39;101344.34;;;22.12
13497;BMP180;6820;49.374;8.452;2023-05-17T09:37:45;101350.09;;;22.31
13497;BMP180;6820;49.374;8.452;2023-05-17T09:41:47;101359.44;;;22.56
13497;BMP180;6820;49.374;8.452;2023-05-17T09:45:57;101349.78;;;22.50
13497;BMP180;6820;49.374;8.452;2023-05-17T09:50:00;101357.78;;;22.30
13497;BMP180;6820;49.374;8.452;2023-05-17T09:54:05;101355.97;;;22.26
13497;BMP180;6820;49.374;8.452;2023-05-17T09:58:07;101352.25;;;22.46
13497;BMP180;6820;49.374;8.452;2023-05-17T10:02:11;101356.44;;;22.71
13497;BMP180;6820;49.374;8.452;2023-05-17T10:06:20;101347.75;;;22.98
13497;BMP180;6820;49.374;8.452;2023-05-17T10:10:42;101363.13;;;22.92
13497;BMP180;6820;49.374;8.452;2023-05-17T10:14:44;101354.81;;;22.75
13497;BMP180;6820;49.374;8.452;2023-05-17T10:18:46;101360.00;;;22.46
13497;BMP180;6820;49.374;8.452;2023-05-17T10:22:50;101361.22;;;22.29
13497;BMP180;6820;49.374;8.452;2023-05-17T10:26:52;101351.00;;;22.33
13497;BMP180;6820;49.374;8.452;2023-05-17T10:30:54;101360.69;;;22.69
13497;BMP180;6820;49.374;8.452;2023-05-17T10:34:58;101351.06;;;22.93
13497;BMP180;6820;49.374;8.452;2023-05-17T10:39:11;101354.44;;;22.92
13497;BMP180;6820;49.374;8.452;2023-05-17T10:43:13;101350.72;;;23.13
13497;BMP180;6820;49.374;8.452;2023-05-17T10:47:16;101340.66;;;23.23
13497;BMP180;6820;49.374;8.452;2023-05-17T10:51:25;101353.38;;;23.15
13497;BMP180;6820;49.374;8.452;2023-05-17T10:55:41;101347.75;;;23.30
13497;BMP180;6820;49.374;8.452;2023-05-17T11:00:00;101348.41;;;23.55
13497;BMP180;6820;49.374;8.452;2023-05-17T11:04:24;101339.72;;;23.53
13497;BMP180;6820;49.374;8.452;2023-05-17T11:08:27;101344.88;;;23.20
13497;BMP180;6820;49.374;8.452;2023-05-17T11:12:30;101351.13;;;22.96
13497;BMP180;6820;49.374;8.452;2023-05-17T11:16:36;101347.16;;;23.08
13497;BMP180;6820;49.374;8.452;2023-05-17T11:20:37;101339.13;;;23.31
13497;BMP180;6820;49.374;8.452;2023-05-17T11:24:42;101331.88;;;23.51
13497;BMP180;6820;49.374;8.452;2023-05-17T11:28:44;101316.63;;;23.97
13497;BMP180;6820;49.374;8.452;2023-05-17T11:32:51;101314.84;;;24.33
13497;BMP180;6820;49.374;8.452;2023-05-17T11:36:54;101320.94;;;24.35
13497;BMP180;6820;49.374;8.452;2023-05-17T11:40:56;101328.94;;;24.46
13497;BMP180;6820;49.374;8.452;2023-05-17T11:45:00;101331.41;;;24.41
13497;BMP180;6820;49.374;8.452;2023-05-17T11:49:05;101332.81;;;24.25
13497;BMP180;6820;49.374;8.452;2023-05-17T11:53:07;101339.25;;;24.06
13497;BMP180;6820;49.374;8.452;2023-05-17T11:57:11;101330.25;;;23.89
13497;BMP180;6820;49.374;8.452;2023-05-17T12:01:17;101330.00;;;23.80
13497;BMP180;6820;49.374;8.452;2023-05-17T12:05:19;101321.50;;;23.85
13497;BMP180;6820;49.374;8.452;2023-05-17T12:09:21;101311.56;;;23.67
13497;BMP180;6820;49.374;8.452;2023-05-17T12:13:27;101320.53;;;23.46
13497;BMP180;6820;49.374;8.452;2023-05-17T12:17:34;101309.84;;;23.66
13497;BMP180;6820;49.374;8.452;2023-05-17T12:21:37;101307.75;;;24.24
13497;BMP180;6820;49.374;8.452;2023-05-17T12:25:39;101292.47;;;24.80
13497;BMP180;6820;49.374;8.452;2023-05-17T12:29:41;101307.50;;;24.97
13497;BMP180;6820;49.374;8.452;2023-05-17T12:33:43;101306.19;;;24.75
13497;BMP180;6820;49.374;8.452;2023-05-17T12:37:45;101291.66;;;24.82
13497;BMP180;6820;49.374;8.452;2023-05-17T12:41:47;101292.81;;;24.96
13497;BMP180;6820;49.374;8.452;2023-05-17T12:45:51;101291.31;;;25.10
13497;BMP180;6820;49.374;8.452;2023-05-17T12:49:53;101286.69;;;24.94
13497;BMP180;6820;49.374;8.452;2023-05-17T12:53:56;101286.56;;;24.43
13497;BMP180;6820;49.374;8.452;2023-05-17T12:58:01;101292.22;;;24.67
13497;BMP180;6820;49.374;8.452;2023-05-17T13:02:03;101271.00;;;25.37
13497;BMP180;6820;49.374;8.452;2023-05-17T13:06:07;101269.28;;;25.93
13497;BMP180;6820;49.374;8.452;2023-05-17T13:10:23;101267.09;;;25.61
13497;BMP180;6820;49.374;8.452;2023-05-17T13:18:50;101256.97;;;25.78
13497;BMP180;6820;49.374;8.452;2023-05-17T13:22:52;101261.34;;;25.82
13497;BMP180;6820;49.374;8.452;2023-05-17T13:26:54;101257.16;;;25.93
13497;BMP180;6820;49.374;8.452;2023-05-17T13:30:55;101249.16;;;25.77
13497;BMP180;6820;49.374;8.452;2023-05-17T13:34:57;101250.44;;;26.07
13497;BMP180;6820;49.374;8.452;2023-05-17T13:38:59;101249.25;;;25.84
13497;BMP180;6820;49.374;8.452;2023-05-17T13:43:02;101251.16;;;25.99
13497;BMP180;6820;49.374;8.452;2023-05-17T13:47:04;101228.88;;;26.14
13497;BMP180;6820;49.374;8.452;2023-05-17T13:51:06;101225.44;;;26.13
13497;BMP180;6820;49.374;8.452;2023-05-17T13:55:08;101222.03;;;26.19
13497;BMP180;6820;49.374;8.452;2023-05-17T13:59:09;101218.50;;;26.14
13497;BMP180;6820;49.374;8.452;2023-05-17T14:07:13;101216.00;;;27.08
13497;BMP180;6820;49.374;8.452;2023-05-17T14:11:15;101214.75;;;27.75
13497;BMP180;6820;49.374;8.452;2023-05-17T14:15:17;101215.63;;;27.74
13497;BMP180;6820;49.374;8.452;2023-05-17T14:19:19;101208.59;;;27.56
13497;BMP180;6820;49.374;8.452;2023-05-17T14:23:20;101207.97;;;27.97
13497;BMP180;6820;49.374;8.452;2023-05-17T14:27:25;101193.22;;;27.99
13497;BMP180;6820;49.374;8.452;2023-05-17T14:31:26;101194.25;;;28.50
13497;BMP180;6820;49.374;8.452;2023-05-17T14:35:30;101183.84;;;28.60
13497;BMP180;6820;49.374;8.452;2023-05-17T14:39:32;101185.56;;;28.61
13497;BMP180;6820;49.374;8.452;2023-05-17T14:43:33;101186.44;;;28.65
13497;BMP180;6820;49.374;8.452;2023-05-17T14:47:35;101186.44;;;28.59
13497;BMP180;6820;49.374;8.452;2023-05-17T14:51:37;101185.56;;;28.76
13497;BMP180;6820;49.374;8.452;2023-05-17T14:55:39;101195.06;;;28.40
13497;BMP180;6820;49.374;8.452;2023-05-17T14:59:40;101188.09;;;28.38
13497;BMP180;6820;49.374;8.452;2023-05-17T15:03:45;101190.69;;;28.33
13497;BMP180;6820;49.374;8.452;2023-05-17T15:07:47;101186.34;;;28.23
13497;BMP180;6820;49.374;8.452;2023-05-17T15:11:49;101182.88;;;28.33
13497;BMP180;6820;49.374;8.452;2023-05-17T15:15:51;101172.53;;;28.58
13497;BMP180;6820;49.374;8.452;2023-05-17T15:19:53;101165.56;;;28.51
13497;BMP180;6820;49.374;8.452;2023-05-17T15:23:55;101169.03;;;29.05
13497;BMP180;6820;49.374;8.452;2023-05-17T15:27:56;101169.03;;;29.29
13497;BMP180;6820;49.374;8.452;2023-05-17T15:31:58;101182.09;;;28.80
13497;BMP180;6820;49.374;8.452;2023-05-17T15:36:00;101175.16;;;28.66
13497;BMP180;6820;49.374;8.452;2023-05-17T15:40:06;101176.03;;;29.12
13497;BMP180;6820;49.374;8.452;2023-05-17T15:44:10;101174.28;;;29.33
13497;BMP180;6820;49.374;8.452;2023-05-17T15:48:11;101162.06;;;29.37
13497;BMP180;6820;49.374;8.452;2023-05-17T15:52:13;101162.13;;;29.19
13497;BMP180;6820;49.374;8.452;2023-05-17T15:56:15;101165.56;;;29.36
13497;BMP180;6820;49.374;8.452;2023-05-17T16:00:20;101166.41;;;29.35
13497;BMP180;6820;49.374;8.452;2023-05-17T16:04:22;101167.28;;;29.34
13497;BMP180;6820;49.374;8.452;2023-05-17T16:08:24;101171.69;;;28.98
13497;BMP180;6820;49.374;8.452;2023-05-17T16:12:26;101168.16;;;28.51
13497;BMP180;6820;49.374;8.452;2023-05-17T16:16:27;101169.00;;;28.46
13497;BMP180;6820;49.374;8.452;2023-05-17T16:20:29;101180.28;;;28.35
13497;BMP180;6820;49.374;8.452;2023-05-17T16:24:32;101175.91;;;28.32
13497;BMP180;6820;49.374;8.452;2023-05-17T16:28:34;101170.81;;;28.63
13497;BMP180;6820;49.374;8.452;2023-05-17T16:32:37;101168.19;;;28.81
13497;BMP180;6820;49.374;8.452;2023-05-17T16:36:39;101175.16;;;28.69
13497;BMP180;6820;49.374;8.452;2023-05-17T16:40:40;101172.53;;;28.52
13497;BMP180;6820;49.374;8.452;2023-05-17T16:44:42;101183.69;;;28.13
13497;BMP180;6820;49.374;8.452;2023-05-17T16:48:44;101174.13;;;28.08
13497;BMP180;6820;49.374;8.452;2023-05-17T16:52:46;101182.69;;;27.87
13497;BMP180;6820;49.374;8.452;2023-05-17T16:56:47;101189.56;;;27.71
13497;BMP180;6820;49.374;8.452;2023-05-17T17:00:49;101186.06;;;27.64
13497;BMP180;6820;49.374;8.452;2023-05-17T17:04:51;101181.66;;;27.52
13497;BMP180;6820;49.374;8.452;2023-05-17T17:08:53;101181.34;;;27.13
13497;BMP180;6820;49.374;8.452;2023-05-17T17:16:56;101177.84;;;26.19
13497;BMP180;6820;49.374;8.452;2023-05-17T17:20:58;101179.38;;;26.05
13497;BMP180;6820;49.374;8.452;2023-05-17T17:25:00;101193.66;;;25.70
13497;BMP180;6820;49.374;8.452;2023-05-17T17:29:03;101196.88;;;25.52
13497;BMP180;6820;49.374;8.452;2023-05-17T17:33:04;101191.38;;;25.33
13497;BMP180;6820;49.374;8.452;2023-05-17T17:37:06;101199.66;;;25.09
13497;BMP180;6820;49.374;8.452;2023-05-17T17:41:08;101188.69;;;24.78
13497;BMP180;6820;49.374;8.452;2023-05-17T17:45:10;101206.44;;;24.55
13497;BMP180;6820;49.374;8.452;2023-05-17T17:49:12;101211.31;;;24.39
13497;BMP180;6820;49.374;8.452;2023-05-17T17:53:15;101211.94;;;24.27
13497;BMP180;6820;49.374;8.452;2023-05-17T17:57:16;101214.19;;;24.11
13497;BMP180;6820;49.374;8.452;2023-05-17T18:01:19;101219.13;;;24.01
13497;BMP180;6820;49.374;8.452;2023-05-17T18:05:21;101225.75;;;23.87
13497;BMP180;6820;49.374;8.452;2023-05-17T18:09:23;101227.28;;;23.78
13497;BMP180;6820;49.374;8.452;2023-05-17T18:13:24;101232.13;;;23.63
13497;BMP180;6820;49.374;8.452;2023-05-17T18:17:26;101228.38;;;23.51
13497;BMP180;6820;49.374;8.452;2023-05-17T18:21:28;101222.09;;;23.41
13497;BMP180;6820;49.374;8.452;2023-05-17T18:25:30;101226.25;;;23.35
13497;BMP180;6820;49.374;8.452;2023-05-17T18:29:32;101220.88;;;23.26
13497;BMP180;6820;49.374;8.452;2023-05-17T18:33:34;101221.56;;;23.19
13497;BMP180;6820;49.374;8.452;2023-05-17T18:37:36;101222.03;;;23.03
13497;BMP180;6820;49.374;8.452;2023-05-17T18:41:37;101223.59;;;22.97
13497;BMP180;6820;49.374;8.452;2023-05-17T18:45:39;101230.25;;;22.88
13497;BMP180;6820;49.374;8.452;2023-05-17T18:49:41;101230.69;;;22.73
13497;BMP180;6820;49.374;8.452;2023-05-17T18:53:45;101223.63;;;22.66
13497;BMP180;6820;49.374;8.452;2023-05-17T18:57:47;101223.50;;;22.61
13497;BMP180;6820;49.374;8.452;2023-05-17T19:01:49;101233.41;;;22.46
13497;BMP180;6820;49.374;8.452;2023-05-17T19:05:50;101236.56;;;22.36
13497;BMP180;6820;49.374;8.452;2023-05-17T19:09:52;101239.78;;;22.28
13497;BMP180;6820;49.374;8.452;2023-05-17T19:13:54;101243.84;;;22.20
13497;BMP180;6820;49.374;8.452;2023-05-17T19:17:56;101245.25;;;22.09
13497;BMP180;6820;49.374;8.452;2023-05-17T19:21:58;101253.63;;;22.02
13497;BMP180;6820;49.374;8.452;2023-05-17T19:26:01;101256.81;;;21.94
13497;BMP180;6820;49.374;8.452;2023-05-17T19:30:03;101262.72;;;21.90
13497;BMP180;6820;49.374;8.452;2023-05-17T19:34:05;101261.78;;;21.88
13497;BMP180;6820;49.374;8.452;2023-05-17T19:38:07;101268.56;;;21.84
13497;BMP180;6820;49.374;8.452;2023-05-17T19:42:09;101277.78;;;21.76
13497;BMP180;6820;49.374;8.452;2023-05-17T19:46:11;101267.97;;;21.65
13497;BMP180;6820;49.374;8.452;2023-05-17T19:50:13;101274.59;;;21.57
13497;BMP180;6820;49.374;8.452;2023-05-17T19:54:15;101282.19;;;21.53
13497;BMP180;6820;49.374;8.452;2023-05-17T19:58:16;101282.97;;;21.50
13497;BMP180;6820;49.374;8.452;2023-05-17T20:02:18;101275.91;;;21.45
13497;BMP180;6820;49.374;8.452;2023-05-17T20:06:20;101283.41;;;21.38
13497;BMP180;6820;49.374;8.452;2023-05-17T20:10:22;101286.63;;;21.32
13497;BMP180;6820;49.374;8.452;2023-05-17T20:14:26;101279.63;;;21.28
13497;BMP180;6820;49.374;8.452;2023-05-17T20:18:27;101280.34;;;21.24
13497;BMP180;6820;49.374;8.452;2023-05-17T20:22:30;101281.03;;;21.19
13497;BMP180;6820;49.374;8.452;2023-05-17T20:26:33;101293.72;;;21.13
13497;BMP180;6820;49.374;8.452;2023-05-17T20:30:40;101285.72;;;21.06
13497;BMP180;6820;49.374;8.452;2023-05-17T20:34:43;101290.75;;;21.01
13497;BMP180;6820;49.374;8.452;2023-05-17T20:38:46;101300.97;;;20.98
13497;BMP180;6820;49.374;8.452;2023-05-17T20:42:47;101306.81;;;20.94
13497;BMP180;6820;49.374;8.452;2023-05-17T20:46:50;101291.22;;;20.90
13497;BMP180;6820;49.374;8.452;2023-05-17T20:50:52;101294.47;;;20.84
13497;BMP180;6820;49.374;8.452;2023-05-17T20:54:54;101299.56;;;20.83
13497;BMP180;6820;49.374;8.452;2023-05-17T20:58:55;101301.19;;;20.81
13497;BMP180;6820;49.374;8.452;2023-05-17T21:02:57;101307.84;;;20.75
13497;BMP180;6820;49.374;8.452;2023-05-17T21:06:59;101301.66;;;20.70
13497;BMP180;6820;49.374;8.452;2023-05-17T21:11:00;101303.16;;;20.63
13497;BMP180;6820;49.374;8.452;2023-05-17T21:15:03;101306.31;;;20.56
13497;BMP180;6820;49.374;8.452;2023-05-17T21:19:17;101305.03;;;20.45
13497;BMP180;6820;49.374;8.452;2023-05-17T21:23:19;101299.50;;;20.35
13497;BMP180;6820;49.374;8.452;2023-05-17T21:27:21;101316.47;;;20.30
13497;BMP180;6820;49.374;8.452;2023-05-17T21:31:22;101311.19;;;20.26
13497;BMP180;6820;49.374;8.452;2023-05-17T21:35:24;101312.63;;;20.19
13497;BMP180;6820;49.374;8.452;2023-05-17T21:39:26;101312.41;;;20.14
13497;BMP180;6820;49.374;8.452;2023-05-17T21:43:27;101308.03;;;20.11
13497;BMP180;6820;49.374;8.452;2023-05-17T21:47:29;101304.81;;;19.95
13497;BMP180;6820;49.374;8.452;2023-05-17T21:51:31;101308.72;;;19.85
13497;BMP180;6820;49.374;8.452;2023-05-17T21:55:33;101304.09;;;19.77
13497;BMP180;6820;49.374;8.452;2023-05-17T21:59:47;101308.03;;;19.69
13497;BMP180;6820;49.374;8.452;2023-05-17T22:03:49;101312.84;;;19.60
13497;BMP180;6820;49.374;8.452;2023-05-17T22:07:55;101310.03;;;19.54
13497;BMP180;6820;49.374;8.452;2023-05-17T22:11:57;101309.78;;;19.49
13497;BMP180;6820;49.374;8.452;2023-05-17T22:15:59;101309.41;;;19.40
13497;BMP180;6820;49.374;8.452;2023-05-17T22:20:02;101306.50;;;19.32
13497;BMP180;6820;49.374;8.452;2023-05-17T22:24:04;101311.16;;;19.21
13497;BMP180;6820;49.374;8.452;2023-05-17T22:28:07;101311.47;;;19.08
13497;BMP180;6820;49.374;8.452;2023-05-17T22:32:09;101315.75;;;19.07
13497;BMP180;6820;49.374;8.452;2023-05-17T22:36:10;101317.38;;;19.05
13497;BMP180;6820;49.374;8.452;2023-05-17T22:40:17;101319.63;;;18.98
13497;BMP180;6820;49.374;8.452;2023-05-17T22:44:19;101326.53;;;18.99
13497;BMP180;6820;49.374;8.452;2023-05-17T22:48:22;101323.81;;;18.96
13497;BMP180;6820;49.374;8.452;2023-05-17T22:52:24;101331.56;;;18.97
13497;BMP180;6820;49.374;8.452;2023-05-17T22:56:25;101319.16;;;18.88
13497;BMP180;6820;49.374;8.452;2023-05-17T23:00:27;101327.78;;;18.90
13497;BMP180;6820;49.374;8.452;2023-05-17T23:04:29;101335.66;;;18.92
13497;BMP180;6820;49.374;8.452;2023-05-17T23:08:31;101337.78;;;18.84
13497;BMP180;6820;49.374;8.452;2023-05-17T23:12:33;101325.69;;;18.81
13497;BMP180;6820;49.374;8.452;2023-05-17T23:16:36;101335.78;;;18.77
13497;BMP180;6820;49.374;8.452;2023-05-17T23:20:38;101332.94;;;18.71
13497;BMP180;6820;49.374;8.452;2023-05-17T23:24:40;101332.00;;;18.69
13497;BMP180;6820;49.374;8.452;2023-05-17T23:28:42;101341.06;;;18.61
13497;BMP180;6820;49.374;8.452;2023-05-17T23:32:44;101339.91;;;18.55
13497;BMP180;6820;49.374;8.452;2023-05-17T23:36:47;101337.91;;;18.48
13497;BMP180;6820;49.374;8.452;2023-05-17T23:40:48;101330.38;;;18.33
13497;BMP180;6820;49.374;8.452;2023-05-17T23:44:53;101330.59;;;18.19